Time;durP1;ratioP1;P1;durP2;ratioP2;P2;SDS_P1;SDS_P2;PMS_P1;PMS_P2;Temp;Humidity;BMP_temperature;BMP_pressure;BME280_temperature;BME280_humidity;BME280_pressure;Samples;Min_cycle;Max_cycle;Signal;HPM_P1;HPM_P2
2023/08/13 00:02:22;;;;;;;6.25;5.60;;;;;;;24.63;74.56;95888.03;4767581;30;20227;-79
2023/08/13 00:04:49;;;;;;;6.43;5.43;;;;;;;24.67;74.08;95884.59;4771034;30;20208;-80
2023/08/13 00:07:15;;;;;;;9.73;6.38;;;;;;;24.61;74.88;95890.91;4771875;30;20216;-80
2023/08/13 00:09:43;;;;;;;6.57;5.57;;;;;;;24.64;74.75;95898.28;4768414;30;20219;-80
2023/08/13 00:12:09;;;;;;;6.68;4.95;;;;;;;24.64;74.05;95886.97;4760557;30;20227;-79
2023/08/13 00:14:36;;;;;;;6.63;5.82;;;;;;;24.67;74.26;95886.44;4770396;30;20207;-80
2023/08/13 00:17:02;;;;;;;7.68;5.38;;;;;;;24.74;74.20;95884.38;4770290;30;20203;-80
2023/08/13 00:19:28;;;;;;;7.80;5.50;;;;;;;24.78;73.76;95877.56;4771716;30;20247;-80
2023/08/13 00:21:55;;;;;;;6.03;5.43;;;;;;;24.78;73.87;95885.44;4755991;30;20239;-80
2023/08/13 00:24:22;;;;;;;5.90;5.40;;;;;;;24.72;73.96;95891.75;4755608;30;20215;-80
2023/08/13 00:26:49;;;;;;;5.68;4.45;;;;;;;24.73;73.68;95880.16;4755674;30;20610;-80
2023/08/13 00:29:16;;;;;;;8.05;4.97;;;;;;;24.60;74.76;95891.97;4764475;30;20212;-80
2023/08/13 00:31:42;;;;;;;5.40;4.80;;;;;;;24.58;74.95;95894.06;4773250;30;20211;-79
2023/08/13 00:34:09;;;;;;;5.35;4.95;;;;;;;24.49;75.79;95911.38;4772215;30;20219;-80
2023/08/13 00:36:35;;;;;;;5.93;5.40;;;;;;;24.47;75.87;95916.13;4773286;30;20301;-79
2023/08/13 00:39:01;;;;;;;5.47;4.97;;;;;;;24.52;75.80;95912.72;4772595;30;20723;-80
2023/08/13 00:41:28;;;;;;;5.20;4.70;;;;;;;24.51;76.28;95914.56;4763877;30;20215;-80
2023/08/13 00:43:55;;;;;;;4.97;4.38;;;;;;;24.56;75.44;95900.63;4761339;30;20290;-79
2023/08/13 00:46:22;;;;;;;5.80;4.90;;;;;;;24.56;75.09;95898.78;4755234;30;20215;-80
2023/08/13 00:48:55;;;;;;;5.90;4.70;;;;;;;24.48;76.39;95916.91;4754589;30;20216;-79
2023/08/13 00:51:22;;;;;;;6.10;4.60;;;;;;;24.48;76.17;95919.53;4766749;30;20227;-80
2023/08/13 00:53:49;;;;;;;5.20;4.80;;;;;;;24.42;76.58;95922.16;4772047;30;20266;-80
2023/08/13 00:56:16;;;;;;;5.05;4.55;;;;;;;24.41;77.02;95925.06;4763935;30;20231;-79
2023/08/13 00:58:43;;;;;;;5.40;4.90;;;;;;;24.44;76.66;95927.16;4754751;30;20223;-82
2023/08/13 01:01:12;;;;;;;4.85;4.45;;;;;;;24.37;77.45;95924.75;4752873;30;20634;-82
2023/08/13 01:03:39;;;;;;;5.50;4.70;;;;;;;24.39;76.95;95927.94;4768231;30;20235;-82
2023/08/13 01:06:12;;;;;;;5.72;4.97;;;;;;;24.44;76.64;95924.50;4764030;30;20211;-82
2023/08/13 01:08:43;;;;;;;8.85;4.22;;;;;;;24.43;76.76;95929.00;4768553;30;20720;-82
2023/08/13 01:11:22;;;;;;;6.75;4.72;;;;;;;24.45;76.35;95912.94;4754650;30;20216;-80
2023/08/13 01:13:57;;;;;;;5.20;4.80;;;;;;;24.40;76.55;95937.41;4755745;30;20276;-79
2023/08/13 01:16:27;;;;;;;4.90;4.30;;;;;;;24.38;76.38;95928.97;4755849;30;20235;-79
2023/08/13 01:18:53;;;;;;;5.57;4.45;;;;;;;24.34;76.30;95927.91;4773230;30;20211;-79
2023/08/13 01:21:20;;;;;;;4.68;4.28;;;;;;;24.33;76.27;95923.69;4773452;30;20223;-80
2023/08/13 01:23:47;;;;;;;5.07;4.57;;;;;;;24.38;75.96;95918.44;4770677;30;20254;-80
2023/08/13 01:26:20;;;;;;;5.47;4.45;;;;;;;24.39;76.44;95932.41;4772583;30;20211;-79
2023/08/13 01:28:54;;;;;;;9.13;4.50;;;;;;;24.37;76.05;95935.28;4772352;30;20215;-80
2023/08/13 01:31:26;;;;;;;5.35;4.82;;;;;;;24.38;75.78;95926.34;4772190;30;20254;-79
2023/08/13 01:33:53;;;;;;;4.97;4.57;;;;;;;24.37;75.48;95919.50;4771529;30;20224;-79
2023/08/13 01:36:20;;;;;;;4.82;4.30;;;;;;;24.38;75.47;95905.28;4767791;30;20228;-79
2023/08/13 01:38:49;;;;;;;5.05;4.65;;;;;;;24.29;75.46;95901.53;4758376;30;20214;-80
2023/08/13 01:41:16;;;;;;;4.80;4.30;;;;;;;24.36;75.39;95906.59;4772627;30;20219;-79
2023/08/13 01:43:42;;;;;;;5.30;4.22;;;;;;;24.29;76.12;95914.69;4771892;30;20313;-80
2023/08/13 01:46:08;;;;;;;5.70;4.50;;;;;;;24.26;75.81;95914.41;4771708;30;20281;-80
2023/08/13 01:48:35;;;;;;;4.75;4.30;;;;;;;24.28;75.62;95893.91;4766133;30;20200;-79
2023/08/13 01:51:01;;;;;;;7.15;4.28;;;;;;;24.27;75.95;95902.84;4764403;30;20210;-80
2023/08/13 01:53:28;;;;;;;4.35;3.90;;;;;;;24.22;76.14;95905.44;4755843;30;20610;-82
2023/08/13 01:55:55;;;;;;;4.63;3.88;;;;;;;24.21;76.13;95906.47;4765053;30;20231;-81
2023/08/13 01:58:22;;;;;;;4.05;3.75;;;;;;;24.21;75.96;95902.00;4771606;30;20215;-80
2023/08/13 02:00:48;;;;;;;4.70;4.30;;;;;;;24.21;76.15;95907.28;4767338;30;20211;-80
2023/08/13 02:03:15;;;;;;;4.97;3.95;;;;;;;24.14;76.23;95906.69;4771062;30;20227;-80
2023/08/13 02:05:41;;;;;;;5.65;4.53;;;;;;;24.15;76.06;95902.22;4762598;30;20247;-78
2023/08/13 02:08:08;;;;;;;4.53;4.05;;;;;;;24.10;76.89;95910.88;4770081;30;20775;-79
2023/08/13 02:10:34;;;;;;;9.95;4.60;;;;;;;24.10;76.96;95924.81;4770061;30;20235;-80
2023/08/13 02:13:02;;;;;;;8.48;4.07;;;;;;;24.18;76.40;95917.50;4769708;30;20246;-80
2023/08/13 02:15:28;;;;;;;4.45;4.05;;;;;;;24.23;76.37;95912.28;4771533;30;20256;-79
2023/08/13 02:17:54;;;;;;;5.00;4.40;;;;;;;24.32;75.98;95911.56;4765516;30;20211;-80
2023/08/13 02:20:21;;;;;;;4.90;4.40;;;;;;;24.34;76.27;95904.22;4772076;30;20216;-80
2023/08/13 02:22:47;;;;;;;4.32;3.97;;;;;;;24.36;75.87;95894.22;4771980;30;20242;-80
2023/08/13 02:25:14;;;;;;;7.35;4.60;;;;;;;24.30;76.14;95908.38;4771682;30;20215;-79
2023/08/13 02:27:40;;;;;;;4.85;4.45;;;;;;;24.29;75.82;95904.16;4765666;30;20217;-80
2023/08/13 02:30:10;;;;;;;6.72;4.60;;;;;;;24.20;76.19;95905.69;4766369;30;20212;-80
2023/08/13 02:32:36;;;;;;;6.45;4.35;;;;;;;24.17;76.69;95913.28;4770524;30;20587;-79
2023/08/13 02:35:03;;;;;;;4.88;4.15;;;;;;;24.18;76.83;95912.25;4771528;30;20211;-80
2023/08/13 02:37:29;;;;;;;5.82;4.32;;;;;;;24.21;77.14;95925.69;4771191;30;20238;-80
2023/08/13 02:39:56;;;;;;;4.38;4.05;;;;;;;24.24;76.91;95924.44;4770968;30;20218;-80
2023/08/13 02:42:22;;;;;;;5.93;4.45;;;;;;;24.21;78.13;95951.22;4770777;30;20756;-79
2023/08/13 02:44:49;;;;;;;5.15;4.57;;;;;;;24.24;77.56;95929.69;4769152;30;20220;-79
2023/08/13 02:47:16;;;;;;;4.95;4.55;;;;;;;24.21;78.52;95953.84;4770909;30;20211;-80
2023/08/13 02:49:43;;;;;;;5.03;4.05;;;;;;;24.22;77.82;95943.06;4771272;30;20587;-78
2023/08/13 02:52:09;;;;;;;4.93;4.20;;;;;;;24.22;78.05;95926.47;4771224;30;20215;-79
2023/08/13 02:54:36;;;;;;;6.15;4.85;;;;;;;24.08;78.36;95937.44;4771558;30;20226;-79
2023/08/13 02:57:02;;;;;;;4.80;4.40;;;;;;;24.02;79.30;95967.41;4774303;30;20238;-79
2023/08/13 02:59:28;;;;;;;6.10;4.80;;;;;;;23.91;80.83;95980.69;4773106;30;20215;-80
2023/08/13 03:01:55;;;;;;;5.40;4.90;;;;;;;23.98;81.09;95987.34;4770472;30;20216;-79
2023/08/13 03:04:23;;;;;;;5.78;4.72;;;;;;;24.04;81.43;95991.63;4757357;30;20212;-79
2023/08/13 03:06:49;;;;;;;9.98;5.45;;;;;;;24.08;81.48;95987.41;4772862;30;20208;-79
2023/08/13 03:09:21;;;;;;;9.48;5.15;;;;;;;24.11;80.73;95972.97;4763947;30;20212;-79
2023/08/13 03:11:47;;;;;;;5.82;5.32;;;;;;;23.92;81.88;95993.59;4755982;30;20695;-80
2023/08/13 03:14:14;;;;;;;5.22;4.72;;;;;;;23.79;83.39;96004.53;4773326;30;20245;-80
2023/08/13 03:16:40;;;;;;;5.40;4.55;;;;;;;23.72;84.65;96022.34;4772043;30;20227;-78
2023/08/13 03:19:07;;;;;;;5.20;4.80;;;;;;;23.64;85.34;96041.22;4774244;30;20224;-80
2023/08/13 03:21:34;;;;;;;6.50;5.15;;;;;;;23.68;84.58;96029.94;4774165;30;20222;-79
2023/08/13 03:24:01;;;;;;;7.55;4.97;;;;;;;23.75;84.24;96024.47;4756258;30;20250;-79
2023/08/13 03:26:27;;;;;;;5.65;5.15;;;;;;;23.77;84.87;96031.09;4770779;30;20204;-80
2023/08/13 03:28:54;;;;;;;5.28;4.88;;;;;;;23.77;83.54;96012.69;4757649;30;20208;-80
2023/08/13 03:31:20;;;;;;;5.75;5.20;;;;;;;23.77;83.05;95998.72;4756516;30;20216;-80
2023/08/13 03:33:46;;;;;;;5.57;5.03;;;;;;;23.81;82.58;95997.19;4773209;30;20239;-80
2023/08/13 03:36:13;;;;;;;6.40;5.22;;;;;;;23.87;81.40;95972.50;4772208;30;20230;-80
2023/08/13 03:38:41;;;;;;;5.85;5.35;;;;;;;23.89;81.47;95982.78;4772417;30;20303;-80
2023/08/13 03:41:08;;;;;;;5.60;5.10;;;;;;;23.92;81.85;95983.09;4756757;30;20208;-79
2023/08/13 03:43:35;;;;;;;5.68;5.18;;;;;;;23.94;81.34;95983.63;4754996;30;20315;-80
2023/08/13 03:46:02;;;;;;;7.45;5.13;;;;;;;23.84;82.19;95988.81;4754745;30;20220;-79
2023/08/13 03:48:29;;;;;;;7.07;5.18;;;;;;;23.74;82.64;95993.97;4761935;30;20505;-79
2023/08/13 03:50:55;;;;;;;5.85;5.25;;;;;;;23.59;84.01;96009.59;4765429;30;20216;-80
2023/08/13 03:53:24;;;;;;;6.07;5.20;;;;;;;23.52;84.15;96015.03;4772536;30;20224;-79
2023/08/13 03:55:52;;;;;;;7.03;5.43;;;;;;;23.39;85.10;96031.19;4771828;30;20220;-80
2023/08/13 03:58:18;;;;;;;5.50;4.97;;;;;;;23.14;87.14;96050.06;4771009;30;20212;-80
2023/08/13 04:00:45;;;;;;;5.40;4.97;;;;;;;23.17;86.21;96044.31;4773228;30;20214;-79
2023/08/13 04:03:11;;;;;;;5.78;5.35;;;;;;;23.18;86.20;96043.28;4772031;30;20598;-79
2023/08/13 04:05:38;;;;;;;8.27;5.60;;;;;;;23.28;85.37;96030.28;4770254;30;20214;-80
2023/08/13 04:08:05;;;;;;;5.95;5.35;;;;;;;23.36;84.77;96023.78;4773626;30;20593;-78
2023/08/13 04:10:34;;;;;;;5.63;5.13;;;;;;;23.42;84.59;96018.34;4771777;30;20218;-79
2023/08/13 04:13:02;;;;;;;5.25;4.82;;;;;;;23.45;84.42;96022.31;4769813;30;20242;-80
2023/08/13 04:15:29;;;;;;;5.82;4.80;;;;;;;23.43;84.53;96021.78;4772648;30;20231;-78
2023/08/13 04:17:55;;;;;;;5.70;5.20;;;;;;;23.41;84.56;96027.28;4771768;30;20228;-79
2023/08/13 04:20:22;;;;;;;6.60;5.18;;;;;;;23.32;84.46;96020.84;4768454;30;20216;-80
2023/08/13 04:22:48;;;;;;;5.88;5.38;;;;;;;23.33;83.71;96014.56;4771796;30;20281;-80
2023/08/13 04:25:14;;;;;;;6.53;5.38;;;;;;;23.39;83.56;96007.53;4772215;30;20239;-79
2023/08/13 04:27:41;;;;;;;6.07;5.50;;;;;;;23.41;83.68;96005.44;4755163;30;20702;-80
2023/08/13 04:30:10;;;;;;;5.97;5.30;;;;;;;23.42;83.80;96015.72;4754962;30;20211;-80
2023/08/13 04:32:38;;;;;;;5.80;5.20;;;;;;;23.28;84.41;96018.97;4765942;30;20644;-79
2023/08/13 04:35:05;;;;;;;6.28;5.40;;;;;;;23.03;86.12;96049.16;4770819;30;20273;-80
2023/08/13 04:37:32;;;;;;;5.90;5.30;;;;;;;23.08;85.70;96051.06;4764112;30;20228;-78
2023/08/13 04:39:58;;;;;;;5.72;5.18;;;;;;;23.03;86.10;96043.91;4771068;30;20228;-78
2023/08/13 04:42:25;;;;;;;5.43;5.00;;;;;;;23.05;86.26;96054.97;4773073;30;20307;-80
2023/08/13 04:44:51;;;;;;;6.80;5.13;;;;;;;23.14;86.03;96039.56;4772564;30;20215;-79
2023/08/13 04:47:19;;;;;;;6.10;5.53;;;;;;;23.20;85.41;96035.16;4771371;30;20208;-79
2023/08/13 04:49:45;;;;;;;6.20;5.28;;;;;;;23.34;84.88;96023.22;4770993;30;20633;-78
2023/08/13 04:52:12;;;;;;;6.15;5.20;;;;;;;23.49;84.05;96007.63;4770490;30;20211;-80
2023/08/13 04:54:38;;;;;;;5.75;4.85;;;;;;;23.63;83.35;95994.94;4770853;30;20238;-79
2023/08/13 04:57:05;;;;;;;10.13;5.07;;;;;;;23.72;81.87;95967.91;4771221;30;20227;-79
2023/08/13 04:59:31;;;;;;;5.55;4.70;;;;;;;23.86;81.23;95957.78;4770980;30;20207;-79
2023/08/13 05:01:57;;;;;;;5.55;4.90;;;;;;;23.90;80.82;95944.91;4770882;30;20223;-79
2023/08/13 05:04:25;;;;;;;5.40;4.85;;;;;;;23.95;80.57;95934.44;4767012;30;20291;-80
2023/08/13 05:06:52;;;;;;;5.32;4.80;;;;;;;23.89;79.81;95909.94;4771649;30;20220;-79
2023/08/13 05:09:18;;;;;;;4.97;4.57;;;;;;;23.95;79.52;95913.41;4769998;30;20844;-80
2023/08/13 05:11:45;;;;;;;5.45;4.82;;;;;;;23.85;79.86;95921.22;4771031;30;20227;-78
2023/08/13 05:14:11;;;;;;;5.00;4.53;;;;;;;23.86;80.06;95925.44;4770791;30;20776;-79
2023/08/13 05:16:38;;;;;;;5.03;4.57;;;;;;;23.90;80.26;95929.94;4771068;30;20224;-79
2023/08/13 05:19:04;;;;;;;4.90;4.45;;;;;;;23.84;81.22;95940.69;4772080;30;20269;-80
2023/08/13 05:21:32;;;;;;;4.97;4.47;;;;;;;23.77;81.74;95961.91;4759956;30;20240;-78
2023/08/13 05:23:59;;;;;;;5.20;4.20;;;;;;;23.71;81.84;95957.66;4753260;30;20240;-79
2023/08/13 05:26:25;;;;;;;4.63;4.00;;;;;;;23.65;81.87;95956.84;4768868;30;20218;-80
2023/08/13 05:28:51;;;;;;;5.45;4.10;;;;;;;23.75;81.17;95938.50;4768743;30;20207;-82
2023/08/13 05:31:18;;;;;;;3.70;3.40;;;;;;;23.78;80.20;95921.44;4765518;30;20207;-82
2023/08/13 05:33:44;;;;;;;4.90;4.03;;;;;;;23.82;78.51;95895.44;4765820;30;20230;-82
2023/08/13 05:36:11;;;;;;;8.13;3.85;;;;;;;23.89;77.62;95881.00;4766691;30;20233;-80
2023/08/13 05:38:39;;;;;;;4.22;3.83;;;;;;;23.99;77.08;95870.56;4769775;30;20199;-80
2023/08/13 05:41:05;;;;;;;4.40;3.85;;;;;;;24.10;76.36;95845.88;4771126;30;20222;-80
2023/08/13 05:43:32;;;;;;;4.72;4.30;;;;;;;24.16;76.08;95851.19;4769112;30;20231;-82
2023/08/13 05:45:58;;;;;;;5.65;3.80;;;;;;;24.20;74.73;95828.56;4773095;30;20242;-82
2023/08/13 05:48:24;;;;;;;5.25;3.95;;;;;;;24.24;73.76;95809.41;4771363;30;20207;-82
2023/08/13 05:50:51;;;;;;;4.45;4.05;;;;;;;24.19;73.45;95800.69;4771194;30;20219;-81
2023/08/13 05:53:17;;;;;;;5.18;3.88;;;;;;;24.21;74.72;95817.78;4770939;30;20236;-81
2023/08/13 05:55:45;;;;;;;4.43;4.03;;;;;;;24.26;74.12;95806.50;4771156;30;20761;-82
2023/08/13 05:58:11;;;;;;;4.47;4.05;;;;;;;24.25;74.63;95807.56;4769344;30;20255;-81
2023/08/13 06:00:38;;;;;;;6.05;4.07;;;;;;;24.32;75.14;95824.72;4770325;30;20726;-82
2023/08/13 06:03:05;;;;;;;4.70;4.30;;;;;;;24.32;76.12;95839.69;4771707;30;20235;-82
2023/08/13 06:05:31;;;;;;;5.00;4.13;;;;;;;24.30;75.06;95818.13;4772865;30;20301;-82
2023/08/13 06:07:57;;;;;;;4.38;3.97;;;;;;;24.31;73.63;95793.38;4772422;30;20348;-81
2023/08/13 06:10:24;;;;;;;4.78;4.20;;;;;;;24.21;73.56;95780.97;4771846;30;20216;-82
2023/08/13 06:12:52;;;;;;;5.20;4.45;;;;;;;24.36;73.17;95783.66;4772243;30;20254;-81
2023/08/13 06:15:18;;;;;;;5.82;4.20;;;;;;;24.45;73.13;95776.84;4772478;30;20226;-81
2023/08/13 06:17:46;;;;;;;6.40;4.70;;;;;;;24.57;72.15;95760.81;4772308;30;20676;-81
2023/08/13 06:20:15;;;;;;;4.57;4.20;;;;;;;24.62;71.84;95741.63;4772772;30;20223;-82
2023/08/13 06:22:41;;;;;;;4.40;3.97;;;;;;;24.54;71.43;95732.38;4772959;30;20235;-81
2023/08/13 06:25:08;;;;;;;4.57;4.15;;;;;;;24.60;72.03;95746.34;4773678;30;20207;-81
2023/08/13 06:27:35;;;;;;;5.03;4.10;;;;;;;24.75;71.88;95741.09;4773740;30;20292;-81
2023/08/13 06:30:02;;;;;;;4.60;4.20;;;;;;;24.85;72.12;95735.03;4775114;30;20223;-79
2023/08/13 06:32:29;;;;;;;4.25;3.85;;;;;;;24.87;71.85;95736.38;4776198;30;20236;-80
2023/08/13 06:34:55;;;;;;;4.53;4.13;;;;;;;25.03;71.53;95731.91;4776747;30;20309;-79
2023/08/13 06:37:22;;;;;;;4.43;4.03;;;;;;;25.04;69.67;95676.31;4762918;30;20235;-80
2023/08/13 06:39:49;;;;;;;4.50;4.18;;;;;;;25.07;69.15;95664.47;4765279;30;20215;-80
2023/08/13 06:42:16;;;;;;;5.45;4.50;;;;;;;25.12;69.20;95659.19;4776088;30;20678;-81
2023/08/13 06:44:43;;;;;;;5.13;4.50;;;;;;;25.11;69.57;95655.78;4775562;30;20223;-81
2023/08/13 06:47:12;;;;;;;5.10;4.03;;;;;;;25.23;69.67;95662.59;4772709;30;20410;-79
2023/08/13 06:49:39;;;;;;;4.75;4.30;;;;;;;25.23;69.69;95673.94;4758402;30;20222;-78
2023/08/13 06:52:06;;;;;;;5.10;4.63;;;;;;;25.27;68.98;95661.78;4758109;30;20212;-80
2023/08/13 06:54:32;;;;;;;5.80;4.45;;;;;;;25.36;68.92;95670.75;4758089;30;20272;-80
2023/08/13 06:56:59;;;;;;;4.53;4.10;;;;;;;25.35;68.25;95653.34;4757444;30;20267;-79
2023/08/13 06:59:25;;;;;;;5.25;4.15;;;;;;;25.35;68.89;95663.91;4761308;30;20217;-79
2023/08/13 07:01:51;;;;;;;4.65;4.18;;;;;;;25.47;68.58;95666.22;4758792;30;20590;-79
2023/08/13 07:04:19;;;;;;;4.75;4.35;;;;;;;25.51;68.10;95635.63;4775562;30;20239;-79
2023/08/13 07:06:46;;;;;;;4.65;4.25;;;;;;;25.54;67.27;95606.09;4774756;30;20231;-79
2023/08/13 07:09:12;;;;;;;5.10;4.65;;;;;;;25.66;67.08;95603.16;4771096;30;20222;-82
2023/08/13 07:11:39;;;;;;;5.10;4.22;;;;;;;25.77;66.44;95579.13;4770138;30;20249;-82
2023/08/13 07:14:06;;;;;;;4.82;3.75;;;;;;;25.88;65.22;95565.88;4770422;30;20223;-79
2023/08/13 07:16:32;;;;;;;4.43;4.03;;;;;;;26.01;64.46;95546.78;4770637;30;20215;-80
2023/08/13 07:18:59;;;;;;;4.82;4.32;;;;;;;26.15;64.71;95545.09;4768276;30;20235;-80
2023/08/13 07:21:27;;;;;;;5.15;4.00;;;;;;;26.22;63.20;95500.69;4772235;30;20223;-79
2023/08/13 07:23:53;;;;;;;4.55;3.92;;;;;;;26.22;63.63;95513.09;4777258;30;20231;-78
2023/08/13 07:26:20;;;;;;;4.57;4.18;;;;;;;26.47;64.32;95532.19;4776828;30;20212;-78
2023/08/13 07:28:46;;;;;;;3.97;3.72;;;;;;;26.63;64.30;95526.75;4776902;30;20571;-81
2023/08/13 07:31:13;;;;;;;5.45;4.13;;;;;;;26.69;62.91;95486.03;4776877;30;20216;-81
2023/08/13 07:33:39;;;;;;;4.82;3.95;;;;;;;26.76;61.78;95446.84;4775641;30;20230;-80
2023/08/13 07:36:06;;;;;;;4.25;3.85;;;;;;;26.90;61.57;95437.19;4774417;30;20216;-80
2023/08/13 07:38:34;;;;;;;4.00;3.70;;;;;;;27.10;61.85;95452.81;4768019;30;20967;-81
2023/08/13 07:41:03;;;;;;;3.63;3.30;;;;;;;27.16;59.55;95375.00;4775388;30;20212;-79
2023/08/13 07:43:29;;;;;;;5.18;3.80;;;;;;;27.14;60.79;95395.66;4776102;30;20227;-80
2023/08/13 07:45:56;;;;;;;4.30;3.72;;;;;;;27.22;60.24;95391.59;4777784;30;20306;-79
2023/08/13 07:48:22;;;;;;;4.55;3.83;;;;;;;27.11;58.82;95324.09;4777253;30;20797;-79
2023/08/13 07:50:50;;;;;;;4.60;3.50;;;;;;;27.14;60.06;95361.28;4775797;30;20219;-78
2023/08/13 07:53:16;;;;;;;4.13;3.72;;;;;;;27.30;59.40;95367.16;4776982;30;20258;-79
2023/08/13 07:55:46;;;;;;;9.52;3.90;;;;;;;27.48;60.07;95379.56;4777522;30;20224;-79
2023/08/13 07:58:14;;;;;;;4.28;3.83;;;;;;;27.54;58.83;95340.59;4777239;30;20238;-79
2023/08/13 08:00:40;;;;;;;4.53;3.88;;;;;;;27.53;58.78;95333.72;4776610;30;20342;-79
2023/08/13 08:03:08;;;;;;;4.35;3.47;;;;;;;27.62;59.06;95345.25;4776233;30;20235;-79
2023/08/13 08:05:35;;;;;;;3.80;3.50;;;;;;;27.69;58.48;95335.09;4775226;30;20647;-79
2023/08/13 08:08:02;;;;;;;5.32;3.10;;;;;;;27.94;57.24;95277.47;4775503;30;20220;-78
2023/08/13 08:10:28;;;;;;;5.13;3.53;;;;;;;28.04;57.41;95298.47;4776079;30;20216;-78
2023/08/13 08:12:56;;;;;;;3.72;3.42;;;;;;;27.96;57.82;95289.34;4775952;30;20591;-79
2023/08/13 08:15:23;;;;;;;3.95;3.55;;;;;;;27.99;58.06;95306.50;4776791;30;20223;-78
2023/08/13 08:17:49;;;;;;;3.65;3.35;;;;;;;27.84;57.01;95263.38;4776760;30;20226;-79
2023/08/13 08:20:16;;;;;;;3.85;3.45;;;;;;;27.90;57.38;95268.59;4777342;30;20220;-79
2023/08/13 08:22:42;;;;;;;4.93;4.43;;;;;;;28.02;57.49;95295.34;4774983;30;20235;-79
2023/08/13 08:25:10;;;;;;;3.55;3.25;;;;;;;28.33;56.34;95246.00;4776381;30;20637;-78
2023/08/13 08:27:36;;;;;;;4.45;3.63;;;;;;;28.42;55.70;95201.09;4776675;30;20272;-80
2023/08/13 08:30:05;;;;;;;3.40;3.20;;;;;;;28.67;55.17;95205.03;4775634;30;20211;-78
2023/08/13 08:32:32;;;;;;;3.42;3.10;;;;;;;28.73;54.97;95172.03;4776356;30;20236;-78
2023/08/13 08:34:58;;;;;;;3.53;3.22;;;;;;;28.91;54.47;95160.47;4775885;30;20214;-79
2023/08/13 08:37:25;;;;;;;4.28;3.60;;;;;;;29.02;54.13;95139.81;4776440;30;20208;-78
2023/08/13 08:39:52;;;;;;;3.63;3.17;;;;;;;29.00;54.41;95144.63;4775242;30;20298;-79
2023/08/13 08:42:20;;;;;;;3.53;3.17;;;;;;;29.29;53.68;95129.03;4775356;30;20207;-79
2023/08/13 08:44:50;;;;;;;3.88;3.00;;;;;;;29.24;53.69;95125.75;4775632;30;20216;-79
2023/08/13 08:47:18;;;;;;;4.68;4.07;;;;;;;29.01;55.24;95175.38;4775461;30;20257;-80
2023/08/13 08:49:46;;;;;;;3.70;3.40;;;;;;;28.72;54.51;95143.97;4775795;30;20216;-79
2023/08/13 08:52:13;;;;;;;4.57;3.33;;;;;;;28.53;54.88;95166.13;4775948;30;20208;-80
2023/08/13 08:54:40;;;;;;;4.82;3.35;;;;;;;28.44;55.74;95215.59;4773727;30;20211;-79
2023/08/13 08:57:07;;;;;;;3.63;3.33;;;;;;;28.56;54.51;95164.72;4776566;30;20226;-80
2023/08/13 08:59:35;;;;;;;4.28;3.88;;;;;;;28.61;55.15;95196.41;4775662;30;20238;-80
2023/08/13 09:02:01;;;;;;;6.07;3.40;;;;;;;28.53;54.72;95170.63;4775676;30;20215;-79
2023/08/13 09:04:29;;;;;;;3.67;3.38;;;;;;;28.50;55.92;95206.44;4776191;30;20211;-80
2023/08/13 09:06:57;;;;;;;3.10;2.90;;;;;;;28.61;55.30;95177.09;4775325;30;20219;-79
2023/08/13 09:09:24;;;;;;;4.63;4.15;;;;;;;28.60;55.53;95183.47;4774091;30;20633;-78
2023/08/13 09:11:51;;;;;;;5.00;4.50;;;;;;;29.00;54.52;95150.72;4765289;30;20240;-80
2023/08/13 09:14:18;;;;;;;4.85;3.40;;;;;;;29.42;53.52;95133.50;4771747;30;20258;-80
2023/08/13 09:16:45;;;;;;;6.85;3.72;;;;;;;29.86;53.44;95103.31;4773487;30;20231;-79
2023/08/13 09:19:12;;;;;;;5.55;3.50;;;;;;;30.21;52.38;95084.78;4772656;30;20230;-81
2023/08/13 09:21:40;;;;;;;4.35;3.92;;;;;;;30.00;52.81;95065.25;4759568;30;20239;-81
2023/08/13 09:24:08;;;;;;;5.45;3.53;;;;;;;29.63;53.30;95071.91;4764250;30;20800;-81
2023/08/13 09:26:35;;;;;;;4.18;3.53;;;;;;;29.39;53.44;95081.03;4758082;30;20207;-81
2023/08/13 09:29:01;;;;;;;4.65;3.47;;;;;;;29.19;54.12;95100.91;4773161;30;20212;-81
2023/08/13 09:31:28;;;;;;;3.72;3.42;;;;;;;29.04;54.41;95148.25;4764450;30;20209;-80
2023/08/13 09:33:54;;;;;;;4.57;3.63;;;;;;;29.26;54.65;95142.88;4761985;30;20232;-80
2023/08/13 09:36:21;;;;;;;4.70;3.28;;;;;;;29.61;53.25;95060.81;4762793;30;20208;-80
2023/08/13 09:38:48;;;;;;;4.13;3.22;;;;;;;29.77;51.69;95006.97;4770448;30;20249;-79
2023/08/13 09:41:16;;;;;;;3.45;3.15;;;;;;;30.06;51.89;95019.63;4772952;30;20211;-79
2023/08/13 09:43:44;;;;;;;4.93;3.38;;;;;;;30.38;51.81;94991.78;4771622;30;20242;-79
2023/08/13 09:46:13;;;;;;;3.65;3.35;;;;;;;30.54;51.15;94947.66;4772262;30;20249;-80
2023/08/13 09:48:40;;;;;;;3.85;3.35;;;;;;;30.58;51.21;94965.66;4765084;30;20196;-79
2023/08/13 09:51:08;;;;;;;3.80;3.30;;;;;;;30.76;51.10;94975.13;4755035;30;20222;-80
2023/08/13 09:53:36;;;;;;;4.13;3.72;;;;;;;30.81;51.42;94964.31;4754428;30;20235;-79
2023/08/13 09:56:04;;;;;;;3.97;3.45;;;;;;;31.03;50.47;94942.78;4755610;30;20220;-80
2023/08/13 09:58:32;;;;;;;4.22;3.42;;;;;;;31.09;50.83;94948.69;4761119;30;20227;-79
2023/08/13 10:00:59;;;;;;;3.72;3.42;;;;;;;31.27;50.87;94960.81;4771286;30;20609;-79
2023/08/13 10:03:26;;;;;;;3.83;3.45;;;;;;;31.40;50.41;94929.72;4774013;30;20227;-80
2023/08/13 10:05:52;;;;;;;3.67;3.38;;;;;;;31.39;50.04;94912.22;4775596;30;20211;-79
2023/08/13 10:08:19;;;;;;;4.90;3.33;;;;;;;31.27;49.91;94904.94;4778183;30;20578;-79
2023/08/13 10:10:46;;;;;;;3.40;3.10;;;;;;;31.40;50.24;94913.78;4776882;30;20416;-79
2023/08/13 10:13:14;;;;;;;4.03;3.40;;;;;;;31.27;49.91;94928.13;4774834;30;20242;-79
2023/08/13 10:15:42;;;;;;;4.15;3.38;;;;;;;31.35;50.37;94937.94;4775830;30;20208;-80
2023/08/13 10:18:11;;;;;;;5.32;3.38;;;;;;;31.53;50.65;94937.47;4777494;30;20265;-79
2023/08/13 10:20:43;;;;;;;4.10;3.45;;;;;;;31.57;49.67;94908.31;4759009;30;20208;-80
2023/08/13 10:23:11;;;;;;;4.07;3.60;;;;;;;31.42;49.29;94863.66;4761053;30;20663;-80
2023/08/13 10:25:39;;;;;;;4.57;3.70;;;;;;;31.45;50.25;94913.59;4772182;30;20211;-80
2023/08/13 10:28:23;;;;;;;4.07;3.55;;;;;;;31.51;50.09;94914.94;4766070;30;20627;-80
2023/08/13 10:30:49;;;;;;;4.05;3.65;;;;;;;31.55;49.77;94918.53;4771624;30;20207;-79
2023/08/13 10:33:16;;;;;;;3.58;3.28;;;;;;;31.79;49.99;94909.88;4773339;30;20231;-80
2023/08/13 10:35:43;;;;;;;6.03;4.93;;;;;;;31.90;49.73;94916.38;4774491;30;20203;-80
2023/08/13 10:38:10;;;;;;;4.43;3.45;;;;;;;31.76;49.21;94890.00;4776532;30;20239;-80
2023/08/13 10:40:37;;;;;;;3.88;3.53;;;;;;;31.86;49.36;94896.81;4775348;30;20215;-80
2023/08/13 10:43:04;;;;;;;4.63;3.78;;;;;;;31.66;49.35;94886.97;4771684;30;20228;-81
2023/08/13 10:45:35;;;;;;;4.93;3.85;;;;;;;31.51;49.77;94904.31;4772410;30;20216;-81
2023/08/13 10:48:02;;;;;;;7.25;3.40;;;;;;;31.34;50.81;94923.06;4772547;30;20587;-81
2023/08/13 10:50:31;;;;;;;4.07;3.67;;;;;;;31.27;50.46;94931.56;4773381;30;20223;-80
2023/08/13 10:53:07;;;;;;;4.10;3.70;;;;;;;31.11;51.15;94949.19;4773253;30;20254;-80
2023/08/13 10:55:36;;;;;;;5.07;3.70;;;;;;;31.25;51.31;94968.34;4772331;30;20294;-80
2023/08/13 10:58:03;;;;;;;4.57;3.65;;;;;;;31.26;50.91;94937.97;4773713;30;20713;-81
2023/08/13 11:00:29;;;;;;;4.57;4.05;;;;;;;31.30;50.93;94952.19;4771294;30;20235;-80
2023/08/13 11:03:16;;;;;;;3.70;3.40;;;;;;;31.34;51.15;94955.00;4763461;30;20697;-80
2023/08/13 11:05:43;;;;;;;4.25;3.83;;;;;;;31.20;50.92;94923.28;4771209;30;20219;-80
2023/08/13 11:08:15;;;;;;;3.75;3.42;;;;;;;31.09;50.73;94943.38;4772767;30;20208;-81
2023/08/13 11:10:42;;;;;;;4.93;3.50;;;;;;;31.14;51.29;94949.31;4774185;30;20199;-80
2023/08/13 11:13:11;;;;;;;4.13;3.72;;;;;;;31.13;50.21;94905.22;4770490;30;20251;-81
2023/08/13 11:15:37;;;;;;;4.75;3.45;;;;;;;31.15;50.46;94921.63;4773675;30;20211;-79
2023/08/13 11:18:06;;;;;;;5.95;3.75;;;;;;;31.35;50.09;94906.00;4774024;30;20208;-79
2023/08/13 11:20:33;;;;;;;3.65;3.35;;;;;;;31.53;50.38;94937.47;4772993;30;20219;-80
2023/08/13 11:22:59;;;;;;;4.15;3.40;;;;;;;31.66;49.76;94879.00;4773543;30;20297;-80
2023/08/13 11:25:27;;;;;;;3.83;3.40;;;;;;;31.78;50.12;94903.78;4773541;30;20200;-79
2023/08/13 11:27:53;;;;;;;5.65;3.80;;;;;;;31.78;49.62;94861.16;4776066;30;20242;-79
2023/08/13 11:30:20;;;;;;;6.03;3.60;;;;;;;31.78;49.52;94879.81;4774624;30;20917;-79
2023/08/13 11:32:46;;;;;;;4.45;3.42;;;;;;;31.75;48.51;94840.53;4773762;30;20243;-79
2023/08/13 11:35:16;;;;;;;3.80;3.50;;;;;;;31.63;48.49;94821.06;4765096;30;20211;-80